Brasie Corners, New York
Current Conditions -  °F | °C
As of 3:58 AM on Monday 24 Nov 2014 (Local Time) from KGTB Reporting Station
Overcast Overcast  
Wind Chill: 36°   Ceiling: 9000
Heat Index: 45°   Visibility: 10mi
Dew Point: 44°   Wind: 28mph
Humidity: 95%   Direction: 150°SSE
Pressure: 29.51"   Gusts: 37mph
Location:  44.3309°N, 75.4775°W
Report Text: KGTB 240858Z AUTO 15024G32KT 10SM OVC090 07/07 A2951 RMK AO2 PK WND 14038/20 RAE0826DZB0809E0811 CIG 050 RWY21 PRESFR SLP997 P0004 60004 T00720065 57066
Loading
Personal Weather Stations






























Interactive Weather Map New forecast layout! Learn more

10-Day Weather Forecast

Advertisements
Track Severe Weather on mobile